Aeroporto :
LOGIN :

Iscrizione | Disclaimer

   EN    FR    IT 

 










Sommario :    VFR   VFR Marginale   IFR   IFR Intensivo   IFR Molto Intensivo
Visibilità : 
Base nubi : 
>= 8 km
>= 3000ft
5 / 8 km
1000 / 3000 ft
1500m / 5 km
500 / 1000 ft
800 / 1500m
200 / 500 ft
< 800m
< 200 ft
Simboli :   Temporali  Nebbia  Neve Forte  Precipitazioni Forti  Vento > 20 kt
SIGMETs :   Varie  Temporali  Ghiacco  Turbolenza  Onda orograficha  Ceneri Vulcaniche






- Altitudine del aeroporto : 49 ft
- Codice IATA : GLZ


EHGR - Gilze-Rijen Airbase

ULTIMO METAR :
  • 181155Z AUTO 14006KT 100V230 9999 NCD 29/19 Q1011 BLU NOSIG

METARs OBSOLETI :
  • 181125Z AUTO 14008KT 090V190 9999 NCD 29/20 Q1011 BLU NOSIG
  • 181055Z AUTO 12007KT 090V170 9999 BKN100 28/20 Q1011 BLU NOSIG
  • 181025Z AUTO 12009KT 060V140 9999 NCD 27/20 Q1012 BLU NOSIG
  • 180955Z AUTO 11010KT 050V150 9999 NCD 26/20 Q1012 BLU NOSIG
  • 180925Z AUTO 10009KT 040V140 9999 FEW310 26/20 Q1012 BLU NOSIG

TAF TAF EHGR
Valido dal 18 a 09 ore il 18 a 21 ore UTC


180845Z 1809/1821 08009KT CAVOK
BECMG 1812/1815 16009KT
TEMPO 1814/1820 VRB15G30KT 3500 SHRA TSRA SCT050CB BKN070
PROB30
TEMPO 1814/1820 VRB15G40KT 1500 +TSRAGR FEW005 BKN040CB



MetMap, La meteo Aeronautica in un colpo d'occhio ! - Copyright ORBIFLY Dicembre 2007 - Disclaimer

ORBIFLY MET'MAP TEAM :

Programmazione e sviluppo : Alexandra Zaïnal
Concezione : Baudouin d'Aumeries
Aiuto per la programmazione : Marc-Olivier Méhu
Supporto tecnico e logistico : Manuel Goepfert
Aiuto per la traduzione : Arnaldo La Scala

Contatto : metmap@orbifly.com




FONTI E CREDITI :

   NOAA